Time;durP1;ratioP1;P1;durP2;ratioP2;P2;SDS_P1;SDS_P2;PMS_P1;PMS_P2;Temp;Humidity;BMP_temperature;BMP_pressure;BME280_temperature;BME280_humidity;BME280_pressure;Samples;Min_cycle;Max_cycle;Signal;HPM_P1;HPM_P2
2023/06/09 00:03:50;;;;;;;26.35;13.78;;;;;;;20.92;66.83;100616.27;5092319;57;1142910;-70
2023/06/09 00:08:57;;;;;;;24.50;15.18;;;;;;;20.75;66.93;100610.72;5035244;57;1142568;-73
2023/06/09 00:14:03;;;;;;;19.62;12.85;;;;;;;20.64;67.71;100610.63;5054443;57;1143097;-74
2023/06/09 00:19:11;;;;;;;19.40;12.65;;;;;;;20.56;67.53;100612.90;5038209;57;1142629;-71
2023/06/09 00:24:19;;;;;;;12.82;10.40;;;;;;;20.47;67.54;100612.63;5045646;58;1143147;-67
2023/06/09 00:29:24;;;;;;;16.30;11.43;;;;;;;20.41;67.38;100624.62;5045917;58;1143453;-71
2023/06/09 00:34:29;;;;;;;17.62;12.15;;;;;;;20.14;67.55;100611.20;5064574;57;1143047;-74
2023/06/09 00:39:35;;;;;;;19.62;12.47;;;;;;;20.15;68.42;100619.58;5045582;58;1142852;-73
2023/06/09 00:44:42;;;;;;;18.92;11.25;;;;;;;20.12;68.34;100615.91;5046373;58;1142579;-71
2023/06/09 00:49:48;;;;;;;18.65;11.60;;;;;;;20.10;68.33;100616.08;5066402;58;1143198;-70
2023/06/09 00:54:54;;;;;;;12.60;9.25;;;;;;;20.08;68.38;100617.27;4971478;58;1142970;-70
2023/06/09 01:00:00;;;;;;;11.40;8.25;;;;;;;20.00;67.92;100612.80;4970612;58;1140910;-72
2023/06/09 01:05:08;;;;;;;12.30;7.65;;;;;;;19.96;67.84;100609.63;5066495;58;1140731;-71
2023/06/09 01:10:48;;;;;;;27.50;9.38;;;;;;;19.90;67.53;100608.98;5030114;58;1140427;-73
2023/06/09 01:16:04;;;;;;;21.35;9.95;;;;;;;19.80;67.70;100617.78;4966137;59;1140521;-70
2023/06/09 01:21:14;;;;;;;12.05;9.25;;;;;;;19.79;68.06;100620.13;4984816;59;1140998;-70
2023/06/09 01:26:21;;;;;;;13.10;9.18;;;;;;;19.79;68.27;100612.59;4966083;59;1141017;-73
2023/06/09 01:31:27;;;;;;;20.35;10.25;;;;;;;19.77;68.25;100619.97;4966224;59;1140845;-73
2023/06/09 01:36:34;;;;;;;19.87;9.80;;;;;;;19.72;68.28;100619.66;4985019;59;1142845;-67
2023/06/09 01:41:40;;;;;;;13.45;9.38;;;;;;;19.63;68.13;100618.88;4977113;58;1140446;-72
2023/06/09 01:46:47;;;;;;;17.60;10.40;;;;;;;19.34;67.99;100622.15;4954497;59;1140792;-66
2023/06/09 01:52:12;;;;;;;16.80;9.88;;;;;;;19.18;69.04;100623.54;5065844;58;1143030;-67
2023/06/09 01:57:24;;;;;;;10.93;8.78;;;;;;;19.02;68.95;100625.76;4954600;59;1140947;-71
2023/06/09 02:02:34;;;;;;;16.10;8.90;;;;;;;18.92;69.80;100629.98;4954671;59;1141070;-71
2023/06/09 02:07:44;;;;;;;11.80;7.90;;;;;;;18.80;70.12;100631.31;4993139;58;1140871;-73
2023/06/09 02:12:49;;;;;;;11.85;7.72;;;;;;;18.78;70.81;100622.63;4966011;59;1140788;-69
2023/06/09 02:17:55;;;;;;;10.28;8.03;;;;;;;18.73;71.27;100625.47;4965888;59;1140766;-72
2023/06/09 02:23:01;;;;;;;9.65;8.10;;;;;;;18.77;71.69;100622.80;4984821;59;1141011;-73
2023/06/09 02:28:08;;;;;;;11.68;8.90;;;;;;;18.77;72.34;100610.73;4965975;59;1138545;-69
2023/06/09 02:33:18;;;;;;;16.20;7.87;;;;;;;18.80;72.22;100614.39;4965872;59;1140722;-73
2023/06/09 02:38:24;;;;;;;11.75;8.40;;;;;;;18.69;72.31;100617.43;4986395;58;1140849;-74
2023/06/09 02:43:30;;;;;;;8.90;8.03;;;;;;;18.59;73.13;100610.42;5117772;58;1141264;-71
2023/06/09 02:48:35;;;;;;;21.93;8.98;;;;;;;18.52;73.39;100615.23;5098311;58;1138547;-71
2023/06/09 02:53:42;;;;;;;12.98;8.48;;;;;;;18.53;73.94;100608.37;5097981;58;1140543;-75
2023/06/09 02:58:48;;;;;;;14.50;8.43;;;;;;;18.55;74.01;100602.84;5117817;58;1140714;-73
2023/06/09 03:03:54;;;;;;;19.67;8.60;;;;;;;18.43;74.36;100598.34;5027750;58;1140547;-70
2023/06/09 03:09:02;;;;;;;13.00;9.93;;;;;;;18.43;74.36;100598.34;4965007;59;1140624;-75
2023/06/09 03:14:08;;;;;;;17.77;9.63;;;;;;;18.39;76.01;100607.70;4983201;59;1140948;-73
2023/06/09 03:19:16;;;;;;;17.67;9.13;;;;;;;18.22;76.01;100611.38;5030453;58;1140521;-67
2023/06/09 03:24:22;;;;;;;14.00;9.00;;;;;;;18.13;77.03;100613.22;5038709;57;1140766;-72
2023/06/09 03:29:28;;;;;;;12.63;8.58;;;;;;;18.14;77.61;100613.55;5054660;57;1140778;-73
2023/06/09 03:34:34;;;;;;;16.93;10.10;;;;;;;18.20;77.97;100604.84;5053533;57;1140758;-73
2023/06/09 03:39:41;;;;;;;16.97;9.75;;;;;;;18.24;78.74;100612.89;5117764;57;1142806;-71
2023/06/09 03:44:47;;;;;;;10.70;9.55;;;;;;;18.23;79.62;100621.08;5137506;57;1141110;-68
2023/06/09 03:49:54;;;;;;;12.80;9.10;;;;;;;18.15;79.91;100625.94;5117772;57;1140839;-73
2023/06/09 03:55:00;;;;;;;11.90;9.70;;;;;;;18.16;80.56;100629.45;5117699;57;1140525;-74
2023/06/09 04:00:07;;;;;;;12.78;9.40;;;;;;;18.18;80.54;100632.27;5139368;57;1141164;-71
2023/06/09 04:05:15;;;;;;;13.88;10.40;;;;;;;18.32;81.33;100636.67;5095612;57;1140852;-68
2023/06/09 04:10:21;;;;;;;11.37;9.47;;;;;;;18.30;82.07;100629.30;5035267;57;1143142;-69
2023/06/09 04:15:27;;;;;;;17.32;9.53;;;;;;;18.31;82.06;100638.51;5054452;57;1140798;-74
2023/06/09 04:20:34;;;;;;;22.77;11.68;;;;;;;18.39;82.46;100632.30;5035214;57;1140738;-69
2023/06/09 04:25:41;;;;;;;20.90;12.60;;;;;;;18.48;83.28;100637.52;5043252;57;1142910;-72
2023/06/09 04:30:49;;;;;;;38.55;13.43;;;;;;;18.63;83.84;100638.22;5065274;57;1142871;-67
2023/06/09 04:35:55;;;;;;;36.08;13.05;;;;;;;18.77;84.35;100642.89;5045719;58;1142691;-73
2023/06/09 04:41:03;;;;;;;26.93;11.80;;;;;;;18.90;84.30;100640.53;5045700;58;1142846;-71
2023/06/09 04:46:12;;;;;;;15.15;10.45;;;;;;;19.02;83.85;100641.84;5065273;58;1142909;-72
2023/06/09 04:51:19;;;;;;;15.38;9.88;;;;;;;19.15;83.55;100633.27;5045810;58;1142918;-72
2023/06/09 04:56:26;;;;;;;21.60;9.50;;;;;;;19.27;83.48;100628.70;5045942;58;1140771;-70
2023/06/09 05:01:33;;;;;;;17.02;8.65;;;;;;;19.43;83.03;100640.37;5095895;57;1141033;-70
2023/06/09 05:06:39;;;;;;;15.93;8.18;;;;;;;19.60;81.65;100641.52;5070853;57;1141024;-70
2023/06/09 05:11:45;;;;;;;11.18;7.28;;;;;;;19.79;81.05;100646.97;5045666;58;1140531;-71
2023/06/09 05:16:53;;;;;;;12.82;6.85;;;;;;;19.99;80.78;100641.50;5128344;57;1140906;-72
2023/06/09 05:22:01;;;;;;;11.22;6.28;;;;;;;20.24;80.70;100639.98;5080647;57;1140722;-71
2023/06/09 05:27:07;;;;;;;12.68;7.28;;;;;;;20.51;79.62;100639.97;5045705;57;1140905;-71
2023/06/09 05:32:12;;;;;;;16.67;6.40;;;;;;;20.78;78.85;100648.00;5065815;58;1140753;-72
2023/06/09 05:37:18;;;;;;;11.06;5.74;;;;;;;21.08;77.94;100653.75;5046264;58;1140554;-68
2023/06/09 05:42:24;;;;;;;8.93;5.12;;;;;;;21.37;75.76;100652.45;5046554;58;1141502;-72
2023/06/09 05:47:30;;;;;;;7.33;4.55;;;;;;;21.64;74.74;100647.41;5065502;58;1138972;-71
2023/06/09 05:52:36;;;;;;;8.88;4.97;;;;;;;21.93;72.59;100653.25;5046206;58;1138894;-72
2023/06/09 05:57:41;;;;;;;13.08;5.20;;;;;;;22.17;72.72;100652.09;5046155;58;1138631;-71
2023/06/09 06:02:47;;;;;;;8.83;4.87;;;;;;;22.41;72.07;100657.95;5117323;57;1141023;-73
2023/06/09 06:07:52;;;;;;;7.53;4.95;;;;;;;22.65;70.15;100655.36;5051200;57;1138798;-72
2023/06/09 06:13:03;;;;;;;29.30;5.28;;;;;;;22.85;66.74;100668.22;5046115;58;1138702;-69
2023/06/09 06:18:08;;;;;;;7.92;4.00;;;;;;;23.05;67.24;100667.87;5087732;57;1140687;-70
2023/06/09 06:23:14;;;;;;;4.40;3.67;;;;;;;23.28;64.84;100668.94;5046389;57;1138477;-70
2023/06/09 06:28:20;;;;;;;7.08;4.03;;;;;;;23.46;63.89;100674.15;5061054;57;1138879;-73
2023/06/09 06:33:27;;;;;;;13.83;6.53;;;;;;;23.58;62.01;100670.39;5051627;57;1138984;-69
2023/06/09 06:38:32;;;;;;;12.55;6.03;;;;;;;23.65;65.68;100673.98;5065421;58;1140944;-72
2023/06/09 06:43:38;;;;;;;4.65;4.20;;;;;;;23.81;66.02;100670.94;5045630;58;1140610;-75
2023/06/09 06:48:45;;;;;;;5.85;3.50;;;;;;;24.09;62.74;100672.17;5045038;58;1138992;-71
2023/06/09 06:53:51;;;;;;;3.85;3.52;;;;;;;24.31;60.16;100663.92;5045466;58;1139175;-67
2023/06/09 06:58:56;;;;;;;8.80;3.67;;;;;;;24.52;57.71;100668.66;5020877;58;1138353;-71
2023/06/09 07:04:02;;;;;;;7.37;2.87;;;;;;;24.73;56.78;100670.34;5055469;57;1138610;-69
2023/06/09 07:09:08;;;;;;;7.90;3.77;;;;;;;24.91;55.91;100675.10;4887085;60;1138905;-75
2023/06/09 07:14:13;;;;;;;2.90;2.70;;;;;;;25.12;56.74;100672.73;5046075;58;1138802;-73
2023/06/09 07:19:19;;;;;;;5.97;3.30;;;;;;;25.33;54.34;100672.50;5007147;57;1138889;-73
2023/06/09 07:24:25;;;;;;;9.33;2.97;;;;;;;25.48;52.31;100673.09;5003121;58;1138992;-75
2023/06/09 07:29:30;;;;;;;6.12;2.90;;;;;;;25.66;51.26;100658.06;5086331;58;1138651;-69
2023/06/09 07:34:37;;;;;;;4.03;3.08;;;;;;;25.69;50.41;100658.45;5043321;58;1138628;-71
2023/06/09 07:39:43;;;;;;;11.68;3.30;;;;;;;25.86;51.48;100660.16;5008544;58;1139145;-74
2023/06/09 07:44:48;;;;;;;5.65;2.62;;;;;;;26.04;49.19;100660.80;5032724;58;1141114;-73
2023/06/09 07:49:54;;;;;;;8.63;3.52;;;;;;;26.20;48.94;100660.30;5111727;57;1138744;-71
2023/06/09 07:54:59;;;;;;;3.92;3.33;;;;;;;26.39;49.69;100656.66;5144166;57;1138887;-73
2023/06/09 08:00:07;;;;;;;3.12;2.90;;;;;;;26.50;46.87;100660.55;5170363;57;1138660;-71
2023/06/09 08:05:14;;;;;;;4.03;3.20;;;;;;;26.64;47.60;100662.11;5155266;57;1138429;-72
2023/06/09 08:10:20;;;;;;;7.12;3.83;;;;;;;26.77;47.41;100652.50;5155326;57;1138469;-70
2023/06/09 08:15:25;;;;;;;11.17;3.20;;;;;;;26.91;47.88;100656.75;5144248;57;1138718;-73
2023/06/09 08:20:31;;;;;;;4.95;2.98;;;;;;;27.13;44.95;100661.30;5091083;58;1141279;-74
2023/06/09 08:25:37;;;;;;;5.97;2.77;;;;;;;27.15;43.11;100662.43;5071425;58;1138933;-69
2023/06/09 08:30:42;;;;;;;11.50;3.62;;;;;;;27.27;43.91;100663.34;5058339;58;1138770;-73
2023/06/09 08:35:48;;;;;;;12.70;3.47;;;;;;;27.46;44.59;100655.52;5076943;58;1140793;-72
2023/06/09 08:40:55;;;;;;;18.62;4.03;;;;;;;27.74;44.95;100657.72;5057378;58;1140508;-71
2023/06/09 08:46:05;;;;;;;8.08;3.05;;;;;;;27.90;41.41;100665.78;5057044;58;1140580;-70
2023/06/09 08:51:11;;;;;;;19.25;3.37;;;;;;;27.92;40.43;100656.34;5118262;57;1138948;-76
2023/06/09 08:56:17;;;;;;;4.00;3.58;;;;;;;27.98;40.46;100655.94;5120598;57;1140793;-71
2023/06/09 09:01:23;;;;;;;6.80;3.22;;;;;;;27.99;40.83;100661.14;5121163;57;1139020;-70
2023/06/09 09:06:28;;;;;;;3.85;3.55;;;;;;;28.10;40.16;100666.88;5141303;57;1138861;-73
2023/06/09 09:11:34;;;;;;;7.08;3.35;;;;;;;28.03;38.94;100668.32;5111476;57;1139001;-73
2023/06/09 09:16:39;;;;;;;20.72;4.72;;;;;;;28.08;40.60;100664.92;5072721;57;1138726;-73
2023/06/09 09:21:46;;;;;;;5.37;3.47;;;;;;;28.31;39.08;100671.30;5111165;57;1141098;-71
2023/06/09 09:26:51;;;;;;;4.70;2.80;;;;;;;28.43;39.34;100663.16;5070092;57;1138686;-71
2023/06/09 09:31:58;;;;;;;12.63;3.80;;;;;;;28.61;36.22;100667.70;4970552;58;1138544;-73
2023/06/09 09:37:07;;;;;;;7.10;2.55;;;;;;;28.62;36.79;100661.20;5012574;58;1141008;-73
2023/06/09 09:42:11;;;;;;;6.60;2.98;;;;;;;28.71;39.67;100655.73;5028261;57;1138439;-70
2023/06/09 09:47:19;;;;;;;13.15;3.85;;;;;;;29.02;40.83;100654.07;5034145;58;1138314;-64
2023/06/09 09:52:29;;;;;;;3.87;3.10;;;;;;;29.20;32.61;100661.80;4992777;58;1141032;-64
2023/06/09 09:57:36;;;;;;;3.67;2.45;;;;;;;29.22;33.81;100642.78;5026174;58;1138859;-65
2023/06/09 10:02:47;;;;;;;17.73;3.58;;;;;;;29.34;34.54;100647.68;5064734;57;1138690;-65
2023/06/09 10:07:55;;;;;;;;;;;;;;;29.31;33.39;100652.27;5058308;57;1141043;-63
2023/06/09 10:13:03;;;;;;;6.47;2.95;;;;;;;29.32;33.73;100655.30;5094993;57;975972;-66
2023/06/09 10:18:10;;;;;;;7.20;2.77;;;;;;;29.40;30.63;100644.58;5065287;58;1136515;-65
2023/06/09 10:23:17;;;;;;;13.00;3.55;;;;;;;29.52;32.73;100632.28;5049498;57;1138908;-66
2023/06/09 10:28:23;;;;;;;4.05;3.00;;;;;;;29.71;31.52;100627.79;5044850;57;1140788;-64
2023/06/09 10:33:32;;;;;;;6.17;2.97;;;;;;;29.84;30.42;100629.40;5087460;57;1139147;-65
2023/06/09 10:38:48;;;;;;;14.10;3.67;;;;;;;29.80;31.30;100617.31;5071567;57;1139011;-65
2023/06/09 10:44:20;;;;;;;6.95;2.83;;;;;;;29.90;32.73;100609.35;5054604;57;1140718;-65
2023/06/09 10:49:37;;;;;;;8.23;2.83;;;;;;;30.00;30.52;100603.28;5062066;57;1138850;-64
2023/06/09 10:54:43;;;;;;;18.48;3.98;;;;;;;29.85;29.83;100603.79;4876764;60;1138897;-63
2023/06/09 10:59:54;;;;;;;4.97;3.15;;;;;;;29.72;30.06;100601.36;4947947;57;1140514;-64
2023/06/09 11:05:00;;;;;;;5.30;2.50;;;;;;;29.81;30.28;100597.69;4999409;58;1138723;-65
2023/06/09 11:10:11;;;;;;;9.20;2.77;;;;;;;29.98;28.59;100594.51;5029619;58;1138634;-65
2023/06/09 11:15:17;;;;;;;17.10;3.50;;;;;;;30.14;30.30;100584.16;5025866;58;1138440;-65
2023/06/09 11:20:25;;;;;;;20.75;3.83;;;;;;;30.09;29.24;100588.19;5023613;58;1141326;-65
2023/06/09 11:25:34;;;;;;;42.83;4.72;;;;;;;30.16;29.76;100577.10;4884200;60;1141010;-66
2023/06/09 11:31:03;;;;;;;8.45;3.37;;;;;;;30.16;29.83;100564.29;5012658;58;1140882;-64
2023/06/09 11:36:12;;;;;;;2.52;2.40;;;;;;;30.23;26.14;100573.16;5037517;58;1138908;-64
2023/06/09 11:41:22;;;;;;;17.37;3.35;;;;;;;30.29;28.46;100572.15;5028152;57;1138780;-66
2023/06/09 11:46:28;;;;;;;10.13;4.05;;;;;;;30.34;27.86;100560.50;5102935;57;1140659;-66
2023/06/09 11:51:54;;;;;;;14.80;3.35;;;;;;;30.25;28.14;100552.45;5071936;57;1140492;-66
2023/06/09 11:57:00;;;;;;;11.15;2.98;;;;;;;30.22;27.39;100566.58;5055104;57;1140474;-64
2023/06/09 12:02:06;;;;;;;42.10;4.35;;;;;;;30.16;27.38;100554.73;5056555;57;1140767;-65
2023/06/09 12:07:19;;;;;;;26.33;3.95;;;;;;;30.14;25.76;100545.97;5025716;58;1140496;-63
2023/06/09 12:12:24;;;;;;;10.25;3.60;;;;;;;30.17;26.68;100550.11;5025837;58;1140540;-63
2023/06/09 12:17:30;;;;;;;13.97;3.23;;;;;;;30.21;28.38;100540.37;5025694;58;1140862;-64
2023/06/09 12:22:40;;;;;;;13.90;3.12;;;;;;;30.39;27.81;100526.48;5112481;58;1140836;-65
2023/06/09 12:27:46;;;;;;;18.27;3.60;;;;;;;30.36;27.97;100540.61;5108034;57;1140498;-65
2023/06/09 12:32:51;;;;;;;6.85;2.83;;;;;;;30.33;28.48;100531.55;5110060;57;1141005;-64
2023/06/09 12:37:57;;;;;;;10.70;3.27;;;;;;;30.39;28.16;100523.75;5138906;57;1138940;-65
2023/06/09 12:43:06;;;;;;;10.00;2.80;;;;;;;30.32;26.94;100525.27;5009901;57;1141038;-64
2023/06/09 12:48:12;;;;;;;13.90;3.67;;;;;;;30.15;28.11;100535.35;4952811;59;1140463;-65
2023/06/09 12:53:17;;;;;;;9.33;3.27;;;;;;;30.27;29.07;100526.55;4973401;59;1140800;-65
2023/06/09 12:58:23;;;;;;;8.00;3.05;;;;;;;30.48;28.10;100514.05;4998700;58;1138718;-63
2023/06/09 13:03:30;;;;;;;7.83;3.17;;;;;;;30.48;27.25;100522.24;4976444;58;1138598;-62
2023/06/09 13:08:36;;;;;;;7.75;3.10;;;;;;;30.38;27.11;100512.55;4956825;59;1138496;-63
2023/06/09 13:13:43;;;;;;;4.72;2.95;;;;;;;30.43;26.39;100506.60;4975957;59;1138665;-63
2023/06/09 13:18:48;;;;;;;9.98;3.22;;;;;;;30.42;27.19;100504.95;4961297;58;1138669;-63
2023/06/09 13:23:54;;;;;;;8.13;3.30;;;;;;;30.33;26.98;100499.64;5040894;57;1138807;-62
2023/06/09 13:29:00;;;;;;;5.30;2.60;;;;;;;30.37;28.10;100495.34;5087663;57;1139145;-63
2023/06/09 13:34:05;;;;;;;5.90;3.08;;;;;;;30.48;27.20;100494.95;5069509;57;1138489;-63
2023/06/09 13:39:12;;;;;;;16.30;3.15;;;;;;;30.62;26.25;100496.27;5034233;57;1138392;-63
2023/06/09 13:44:17;;;;;;;6.17;4.10;;;;;;;30.61;27.00;100482.88;4988989;58;1140818;-62
2023/06/09 13:49:23;;;;;;;7.33;3.65;;;;;;;30.52;26.31;100493.38;5010922;58;1138854;-63
2023/06/09 13:54:28;;;;;;;5.12;3.33;;;;;;;30.35;26.97;100488.47;5103675;57;1138922;-62
2023/06/09 13:59:36;;;;;;;9.83;3.70;;;;;;;30.51;27.31;100477.25;5109791;57;1139119;-63
2023/06/09 14:04:41;;;;;;;12.28;3.67;;;;;;;30.77;26.87;100479.27;5132671;57;1138668;-62
2023/06/09 14:09:47;;;;;;;12.58;4.30;;;;;;;30.92;27.97;100452.16;5060703;57;1140502;-63
2023/06/09 14:14:53;;;;;;;6.70;3.65;;;;;;;30.76;27.24;100478.98;5027016;58;1140599;-62
2023/06/09 14:19:58;;;;;;;10.80;6.70;;;;;;;30.66;27.66;100474.77;5046390;58;1138932;-63
2023/06/09 14:25:04;;;;;;;10.70;5.83;;;;;;;30.78;27.42;100459.91;4998115;58;1140645;-63
2023/06/09 14:30:11;;;;;;;11.80;4.10;;;;;;;30.92;26.85;100452.16;4947335;58;1140894;-62
2023/06/09 14:35:23;;;;;;;7.30;3.98;;;;;;;31.06;27.50;100453.95;5006981;57;1141265;-63
2023/06/09 14:40:34;;;;;;;14.75;7.03;;;;;;;31.15;26.96;100444.81;5033350;57;1138866;-63
2023/06/09 14:45:37;;;;;;;4.30;4.00;;;;;;;31.20;25.84;100450.31;4951464;59;1140814;-64
2023/06/09 14:50:50;;;;;;;5.65;4.60;;;;;;;31.18;26.61;100447.84;4962311;58;1138713;-64
2023/06/09 14:55:52;;;;;;;6.65;3.05;;;;;;;31.10;26.52;100454.59;4964727;59;1138839;-62
2023/06/09 15:00:58;;;;;;;3.03;2.53;;;;;;;31.13;26.63;100454.63;4857984;60;1138728;-62
2023/06/09 15:06:04;;;;;;;18.32;12.75;;;;;;;31.09;27.43;100454.81;5025517;58;1138859;-63
2023/06/09 15:11:10;;;;;;;7.87;4.00;;;;;;;31.09;26.87;100458.38;5098739;57;1143338;-62
2023/06/09 15:16:19;;;;;;;9.30;6.53;;;;;;;30.87;27.32;100471.20;5038575;58;1138703;-62
2023/06/09 15:21:23;;;;;;;12.75;3.55;;;;;;;30.66;26.38;100470.66;5038599;58;1138886;-62
2023/06/09 15:26:28;;;;;;;7.87;4.70;;;;;;;30.55;26.38;100471.61;5058289;58;1140971;-62
2023/06/09 15:31:34;;;;;;;11.15;4.30;;;;;;;30.39;25.93;100465.91;5038766;58;1138590;-63
2023/06/09 15:36:40;;;;;;;6.10;3.55;;;;;;;30.45;26.81;100455.86;5038331;58;1140496;-64
2023/06/09 15:41:45;;;;;;;8.25;4.30;;;;;;;30.61;27.23;100462.39;5067548;58;1138936;-64
2023/06/09 15:46:51;;;;;;;7.90;3.62;;;;;;;30.69;26.04;100456.52;5064916;57;1138602;-64
2023/06/09 15:51:57;;;;;;;7.30;4.22;;;;;;;30.73;26.97;100458.47;4965708;58;1138712;-65
2023/06/09 15:57:02;;;;;;;14.30;5.78;;;;;;;30.72;27.04;100450.52;4979807;59;1138873;-64
2023/06/09 16:02:08;;;;;;;11.45;4.78;;;;;;;30.70;26.60;100458.17;5016303;58;1140723;-63
2023/06/09 16:07:14;;;;;;;10.88;4.45;;;;;;;30.69;27.06;100461.98;5039456;57;1141094;-64
2023/06/09 16:12:20;;;;;;;14.47;4.45;;;;;;;30.66;27.73;100467.39;5049049;57;1140929;-64
2023/06/09 16:17:26;;;;;;;13.03;3.60;;;;;;;30.48;27.76;100469.02;5082168;57;1141268;-64
2023/06/09 16:22:31;;;;;;;13.48;3.37;;;;;;;30.23;28.15;100465.38;5068509;56;1140688;-64
2023/06/09 16:27:37;;;;;;;12.18;3.75;;;;;;;30.12;28.60;100467.64;5038019;57;1140983;-63
2023/06/09 16:32:43;;;;;;;8.53;4.40;;;;;;;30.12;28.95;100461.36;4950621;59;1140913;-63
2023/06/09 16:37:48;;;;;;;13.00;3.98;;;;;;;30.19;28.61;100457.40;4939427;58;1138638;-64
2023/06/09 16:42:57;;;;;;;11.90;3.83;;;;;;;30.21;28.78;100457.98;4865037;59;1141011;-63
2023/06/09 16:48:03;;;;;;;11.40;2.90;;;;;;;30.27;29.36;100459.69;4935940;59;1141235;-63
2023/06/09 16:53:08;;;;;;;16.45;3.85;;;;;;;30.30;29.10;100467.38;5008780;58;1140993;-65
2023/06/09 16:58:14;;;;;;;7.65;3.72;;;;;;;30.25;29.35;100473.32;4982190;58;1140734;-65
2023/06/09 17:03:19;;;;;;;10.45;4.20;;;;;;;30.03;29.90;100479.52;4889459;59;1139135;-63
2023/06/09 17:08:25;;;;;;;7.40;4.50;;;;;;;29.84;30.69;100482.16;4971940;58;1140925;-64
2023/06/09 17:13:31;;;;;;;11.30;3.70;;;;;;;29.66;31.68;100482.37;4982592;59;1138443;-62
2023/06/09 17:18:36;;;;;;;9.68;3.83;;;;;;;29.46;32.74;100475.20;4916206;58;1140885;-64
2023/06/09 17:23:42;;;;;;;9.93;4.47;;;;;;;29.36;33.41;100488.05;4956436;58;1138886;-63
2023/06/09 17:28:48;;;;;;;12.03;3.62;;;;;;;29.17;34.17;100501.05;5025323;58;1138610;-64
2023/06/09 17:33:53;;;;;;;19.10;4.50;;;;;;;28.98;35.00;100500.38;4994119;57;1140780;-64
2023/06/09 17:38:59;;;;;;;13.03;4.65;;;;;;;28.79;35.83;100503.45;5090150;57;1140854;-64
2023/06/09 17:44:05;;;;;;;10.85;4.10;;;;;;;28.59;36.64;100508.72;5010351;58;1140499;-63
2023/06/09 17:49:11;;;;;;;18.07;4.83;;;;;;;28.44;37.49;100515.70;5072429;56;1140748;-63
2023/06/09 17:54:17;;;;;;;14.33;4.70;;;;;;;28.29;38.72;100521.08;5111630;57;1140975;-65
2023/06/09 17:59:22;;;;;;;12.80;4.08;;;;;;;28.10;38.73;100522.23;5146814;57;1141095;-64
2023/06/09 18:04:28;;;;;;;12.90;4.97;;;;;;;27.93;39.57;100515.27;5113463;57;1140695;-64
2023/06/09 18:09:35;;;;;;;10.03;5.63;;;;;;;27.75;40.08;100513.14;5069602;57;1141077;-63
2023/06/09 18:14:40;;;;;;;14.45;5.72;;;;;;;27.58;40.59;100527.38;5072260;57;1140941;-64
2023/06/09 18:19:46;;;;;;;27.82;6.15;;;;;;;27.49;41.37;100544.21;5047578;58;1140510;-64
2023/06/09 18:24:53;;;;;;;14.03;5.22;;;;;;;27.38;43.04;100550.39;5062804;57;1140386;-64
2023/06/09 18:29:59;;;;;;;16.77;5.83;;;;;;;27.20;44.39;100544.44;5149987;57;1141140;-63
2023/06/09 18:35:05;;;;;;;17.20;5.83;;;;;;;27.09;44.54;100550.11;5130393;57;1140676;-63
2023/06/09 18:40:11;;;;;;;19.15;4.95;;;;;;;27.01;44.70;100560.45;5053622;56;1140898;-62
2023/06/09 18:45:17;;;;;;;27.58;5.37;;;;;;;26.93;45.33;100566.96;5019691;58;1140925;-65
2023/06/09 18:50:23;;;;;;;16.17;5.40;;;;;;;26.87;46.08;100568.70;5034740;57;1140737;-64
2023/06/09 18:55:28;;;;;;;37.15;7.42;;;;;;;26.78;46.42;100574.10;5035716;57;1140731;-63
2023/06/09 19:00:35;;;;;;;25.67;6.03;;;;;;;26.67;46.54;100574.84;4996510;58;1140919;-63
2023/06/09 19:05:41;;;;;;;18.23;5.53;;;;;;;26.59;47.36;100566.97;5053444;57;1140914;-64
2023/06/09 19:10:46;;;;;;;9.30;5.20;;;;;;;26.41;48.33;100573.20;4980898;57;1140760;-63
2023/06/09 19:15:52;;;;;;;12.05;4.78;;;;;;;26.26;48.47;100574.85;4977011;57;1138624;-65
2023/06/09 19:20:58;;;;;;;12.80;4.90;;;;;;;26.11;48.05;100576.22;5050282;57;1140981;-65
2023/06/09 19:26:04;;;;;;;6.45;4.05;;;;;;;26.01;47.86;100581.27;5062138;58;1140458;-65
2023/06/09 19:31:09;;;;;;;16.07;5.15;;;;;;;25.93;47.70;100582.38;5008396;58;1138760;-63
2023/06/09 19:36:15;;;;;;;22.87;5.45;;;;;;;25.88;47.07;100601.98;4974590;58;1140683;-64
2023/06/09 19:41:21;;;;;;;15.50;5.08;;;;;;;25.86;47.27;100608.14;4974177;57;1140778;-64
2023/06/09 19:46:27;;;;;;;18.52;6.10;;;;;;;25.76;46.92;100617.80;4984947;58;1141556;-63
2023/06/09 19:51:33;;;;;;;9.37;4.47;;;;;;;25.65;46.77;100616.60;4972577;59;1141023;-64
2023/06/09 19:56:47;;;;;;;12.60;4.40;;;;;;;25.51;46.62;100618.47;5063397;58;1139146;-64
2023/06/09 20:01:53;;;;;;;18.27;4.58;;;;;;;25.35;46.45;100626.27;5033459;58;1141069;-63
2023/06/09 20:06:58;;;;;;;8.93;4.65;;;;;;;25.22;45.99;100634.70;5053908;58;1141261;-64
2023/06/09 20:12:05;;;;;;;6.75;3.90;;;;;;;25.15;46.48;100636.61;5001035;58;1138604;-64
2023/06/09 20:17:11;;;;;;;4.72;4.00;;;;;;;25.14;46.50;100636.30;5030581;57;1138793;-63
2023/06/09 20:22:18;;;;;;;6.10;3.95;;;;;;;25.09;46.11;100633.38;5055618;57;1138786;-66
2023/06/09 20:27:23;;;;;;;6.58;3.98;;;;;;;25.06;46.17;100645.14;5027624;57;1138793;-63
2023/06/09 20:32:29;;;;;;;20.05;5.05;;;;;;;25.03;46.43;100640.17;5050169;57;1138454;-67
2023/06/09 20:37:34;;;;;;;12.07;4.73;;;;;;;24.96;46.54;100648.81;5050868;58;1141122;-64
2023/06/09 20:42:40;;;;;;;9.13;4.28;;;;;;;24.92;46.66;100648.36;4972438;58;1140797;-62
2023/06/09 20:47:46;;;;;;;10.00;4.70;;;;;;;24.84;46.49;100650.77;4861427;60;1138427;-64
2023/06/09 20:52:51;;;;;;;8.58;4.08;;;;;;;24.77;46.51;100653.15;4866491;59;1140526;-65
2023/06/09 20:57:57;;;;;;;8.98;4.67;;;;;;;24.72;46.63;100647.03;4961126;59;1139198;-64
2023/06/09 21:03:05;;;;;;;23.27;6.20;;;;;;;24.68;46.75;100638.18;4902126;59;1138613;-63
2023/06/09 21:08:10;;;;;;;9.40;5.28;;;;;;;24.60;46.91;100641.08;4942290;59;1140519;-63
2023/06/09 21:13:16;;;;;;;10.55;5.20;;;;;;;24.54;47.00;100652.22;4896312;58;1139065;-62
2023/06/09 21:18:21;;;;;;;12.73;5.45;;;;;;;24.46;47.23;100650.53;4942508;59;1140528;-64
2023/06/09 21:23:27;;;;;;;12.10;5.53;;;;;;;24.42;47.28;100652.01;4885131;58;1140869;-62
2023/06/09 21:28:32;;;;;;;9.83;4.80;;;;;;;24.34;47.46;100654.05;4864751;60;1140793;-64
2023/06/09 21:33:38;;;;;;;21.52;5.25;;;;;;;24.25;47.88;100645.32;5128258;56;1138417;-64
2023/06/09 21:38:44;;;;;;;16.42;4.42;;;;;;;24.12;48.13;100649.32;5141753;56;1140722;-64
2023/06/09 21:43:50;;;;;;;7.85;4.65;;;;;;;24.00;48.44;100660.37;5161511;56;1141077;-64
2023/06/09 21:48:55;;;;;;;18.85;6.85;;;;;;;23.89;48.94;100656.92;5134446;57;1138687;-63
2023/06/09 21:54:01;;;;;;;15.28;6.70;;;;;;;23.78;49.42;100656.48;4980274;58;1140810;-64
2023/06/09 21:59:07;;;;;;;5.90;5.30;;;;;;;23.73;49.80;100652.19;4975072;58;1140790;-63
2023/06/09 22:04:12;;;;;;;11.95;5.25;;;;;;;23.66;50.36;100652.69;5028055;58;1138501;-63
2023/06/09 22:09:18;;;;;;;38.98;6.85;;;;;;;23.55;50.59;100654.59;5035802;58;1141077;-62
2023/06/09 22:14:24;;;;;;;11.45;6.15;;;;;;;23.41;50.86;100660.41;5035987;58;1141025;-64
2023/06/09 22:19:30;;;;;;;11.43;5.55;;;;;;;23.36;51.58;100656.66;5055211;58;1141172;-64
2023/06/09 22:24:36;;;;;;;9.08;5.95;;;;;;;23.24;52.13;100660.40;4963207;58;1140523;-62
2023/06/09 22:29:41;;;;;;;11.15;5.47;;;;;;;23.12;53.02;100670.08;5018337;58;1138457;-64
2023/06/09 22:34:47;;;;;;;15.65;6.45;;;;;;;23.03;54.25;100670.76;5012916;58;1140735;-63
2023/06/09 22:39:53;;;;;;;7.62;6.03;;;;;;;22.91;55.11;100674.20;4969263;58;1140506;-64
2023/06/09 22:44:58;;;;;;;8.03;5.72;;;;;;;22.82;56.27;100670.79;5048191;58;1138952;-63
2023/06/09 22:50:13;;;;;;;18.12;9.70;;;;;;;22.80;57.51;100665.59;5070136;58;1138986;-62
2023/06/09 22:55:19;;;;;;;19.23;10.80;;;;;;;22.70;58.07;100665.06;5050537;58;1140535;-62
2023/06/09 23:00:24;;;;;;;12.93;6.40;;;;;;;22.51;60.28;100656.27;5060188;57;1142805;-62
2023/06/09 23:05:34;;;;;;;11.12;5.72;;;;;;;22.51;60.28;100656.27;5077752;58;1140763;-64